createdAt,value
2016-12-25T00:00:45.913Z,0
2016-12-25T00:01:45.585Z,0
2016-12-25T00:02:45.581Z,0
2016-12-25T00:03:46.225Z,0
2016-12-25T00:04:46.225Z,0
2016-12-25T00:05:45.917Z,0
2016-12-25T00:06:45.237Z,0
2016-12-25T00:07:45.880Z,0
2016-12-25T00:08:46.208Z,0
2016-12-25T00:09:45.884Z,0
2016-12-25T00:10:45.880Z,0
2016-12-25T00:11:45.872Z,0
2016-12-25T00:12:45.540Z,0
2016-12-25T00:13:46.196Z,0
2016-12-25T00:14:45.864Z,0
2016-12-25T00:15:45.856Z,0
2016-12-25T00:16:45.851Z,0
2016-12-25T00:17:45.523Z,0
2016-12-25T00:18:45.847Z,0
2016-12-25T00:19:46.167Z,0
2016-12-25T00:20:45.839Z,0
2016-12-25T00:21:45.836Z,0
2016-12-25T00:22:46.159Z,0
2016-12-25T00:23:45.830Z,0
2016-12-25T00:24:45.319Z,0
2016-12-25T00:25:46.142Z,0
2016-12-25T00:26:45.494Z,0
2016-12-25T00:27:45.806Z,0
2016-12-25T00:28:45.494Z,0
2016-12-25T00:29:45.470Z,0
2016-12-25T00:30:46.122Z,0
2016-12-25T00:31:45.465Z,0
2016-12-25T00:32:46.113Z,0
2016-12-25T00:33:45.790Z,0
2016-12-25T00:34:46.033Z,0
2016-12-25T00:35:45.778Z,0
2016-12-25T00:36:45.446Z,0
2016-12-25T00:37:46.106Z,0
2016-12-25T00:38:46.106Z,0
2016-12-25T00:39:45.774Z,0
2016-12-25T00:40:45.766Z,0
2016-12-25T00:41:45.758Z,0
2016-12-25T00:42:45.754Z,0
2016-12-25T00:43:45.426Z,0
2016-12-25T00:44:45.746Z,0
2016-12-25T00:45:45.739Z,0
2016-12-25T00:46:46.067Z,0
2016-12-25T00:47:45.415Z,0
2016-12-25T00:48:45.727Z,0
2016-12-25T00:49:45.735Z,0
2016-12-25T00:50:45.726Z,0
2016-12-25T00:51:45.727Z,0
2016-12-25T00:52:45.723Z,0
2016-12-25T00:53:45.391Z,0
2016-12-25T00:54:46.035Z,0
2016-12-25T00:55:45.383Z,0
2016-12-25T00:56:45.047Z,0
2016-12-25T00:57:45.375Z,0
2016-12-25T00:58:45.695Z,0
2016-12-25T00:59:46.023Z,0
2016-12-25T01:00:45.363Z,0
2016-12-25T01:01:46.040Z,0
2016-12-25T01:02:45.356Z,0
2016-12-25T01:03:46.008Z,0
2016-12-25T01:04:46.004Z,0
2016-12-25T01:05:45.672Z,0
2016-12-25T01:06:45.668Z,0
2016-12-25T01:07:45.660Z,0
2016-12-25T01:08:45.996Z,0
2016-12-25T01:09:45.652Z,0
2016-12-25T01:10:45.652Z,0
2016-12-25T01:11:45.652Z,0
2016-12-25T01:12:45.324Z,0
2016-12-25T01:13:45.641Z,0
2016-12-25T01:14:45.320Z,0
2016-12-25T01:15:45.964Z,0
2016-12-25T01:16:45.633Z,0
2016-12-25T01:17:45.296Z,0
2016-12-25T01:18:45.633Z,0
2016-12-25T01:19:45.613Z,0
2016-12-25T01:20:45.941Z,0
2016-12-25T01:21:45.277Z,0
2016-12-25T01:22:45.286Z,0
2016-12-25T01:23:45.277Z,0
2016-12-25T01:24:45.605Z,0
2016-12-25T01:25:45.930Z,0
2016-12-25T01:26:45.594Z,0
2016-12-25T01:27:45.585Z,0
2016-12-25T01:28:45.586Z,0
2016-12-25T01:29:45.910Z,0
2016-12-25T01:30:45.906Z,0
2016-12-25T01:31:45.906Z,0
2016-12-25T01:32:45.250Z,0
2016-12-25T01:33:45.570Z,0
2016-12-25T01:34:45.238Z,0
2016-12-25T01:35:45.886Z,0
2016-12-25T01:36:45.890Z,0
2016-12-25T01:37:45.550Z,0
2016-12-25T01:38:45.226Z,0
2016-12-25T01:39:45.554Z,0
2016-12-25T01:40:45.876Z,0
2016-12-25T01:41:45.570Z,0
2016-12-25T01:42:45.867Z,0
2016-12-25T01:43:45.570Z,0
2016-12-25T01:44:45.528Z,0
2016-12-25T01:45:45.527Z,0
2016-12-25T01:46:45.515Z,0
2016-12-25T01:47:45.515Z,0
2016-12-25T01:48:45.507Z,0
2016-12-25T01:49:45.515Z,0
2016-12-25T01:50:45.511Z,0
2016-12-25T01:51:45.516Z,0
2016-12-25T01:52:45.832Z,0
2016-12-25T01:53:45.828Z,0
2016-12-25T01:54:45.504Z,0
2016-12-25T01:55:45.528Z,0
2016-12-25T01:56:45.516Z,0
2016-12-25T01:57:45.488Z,0
2016-12-25T01:58:45.152Z,0
2016-12-25T01:59:45.832Z,0
2016-12-25T02:00:45.804Z,0
2016-12-25T02:01:45.800Z,0
2016-12-25T02:02:45.792Z,0
2016-12-25T02:03:45.468Z,0
2016-12-25T02:04:45.164Z,0
2016-12-25T02:05:45.816Z,0
2016-12-25T02:06:45.136Z,0
2016-12-25T02:07:45.777Z,0
2016-12-25T02:08:45.801Z,0
2016-12-25T02:09:45.437Z,0
2016-12-25T02:10:45.765Z,0
2016-12-25T02:11:45.425Z,0
2016-12-25T02:12:45.429Z,0
2016-12-25T02:13:45.425Z,0
2016-12-25T02:14:45.753Z,0
2016-12-25T02:15:45.420Z,0
2016-12-25T02:16:45.421Z,0
2016-12-25T02:17:45.737Z,0
2016-12-25T02:18:45.413Z,0
2016-12-25T02:19:45.402Z,0
2016-12-25T02:20:44.742Z,0
2016-12-25T02:21:45.731Z,0
2016-12-25T02:22:45.390Z,0
2016-12-25T02:23:45.390Z,0
2016-12-25T02:24:45.710Z,0
2016-12-25T02:25:45.379Z,0
2016-12-25T02:26:45.738Z,0
2016-12-25T02:27:45.049Z,0
2016-12-25T02:28:45.370Z,0
2016-12-25T02:29:45.363Z,0
2016-12-25T02:30:45.043Z,0
2016-12-25T02:31:45.682Z,0
2016-12-25T02:32:45.695Z,0
2016-12-25T02:33:45.682Z,0
2016-12-25T02:34:45.347Z,0
2016-12-25T02:35:45.015Z,0
2016-12-25T02:36:45.343Z,0
2016-12-25T02:37:45.335Z,0
2016-12-25T02:38:45.347Z,0
2016-12-25T02:39:45.331Z,0
2016-12-25T02:40:45.655Z,0
2016-12-25T02:41:45.311Z,0
2016-12-25T02:42:45.319Z,0
2016-12-25T02:43:45.315Z,0
2016-12-25T02:44:45.322Z,0
2016-12-25T02:45:44.979Z,0
2016-12-25T02:46:45.307Z,0
2016-12-25T02:47:45.311Z,0
2016-12-25T02:48:45.303Z,0
2016-12-25T02:49:45.295Z,0
2016-12-25T02:50:44.960Z,0
2016-12-25T02:51:45.619Z,0
2016-12-25T02:52:45.287Z,0
2016-12-25T02:53:45.275Z,0
2016-12-25T02:54:45.275Z,0
2016-12-25T02:55:45.267Z,0
2016-12-25T02:56:45.595Z,0
2016-12-25T02:57:45.259Z,0
2016-12-25T02:58:45.259Z,0
2016-12-25T02:59:45.259Z,0
2016-12-25T03:00:44.927Z,0
2016-12-25T03:01:44.931Z,0
2016-12-25T03:02:44.919Z,0
2016-12-25T03:03:45.571Z,0
2016-12-25T03:04:44.911Z,0
2016-12-25T03:05:45.579Z,0
2016-12-25T03:06:44.936Z,0
2016-12-25T03:07:45.228Z,0
2016-12-25T03:08:45.228Z,0
2016-12-25T03:09:45.544Z,0
2016-12-25T03:10:45.540Z,0
2016-12-25T03:11:45.212Z,0
2016-12-25T03:12:45.216Z,0
2016-12-25T03:13:45.216Z,0
2016-12-25T03:14:45.197Z,0
2016-12-25T03:15:45.204Z,0
2016-12-25T03:16:44.877Z,0
2016-12-25T03:17:45.217Z,0
2016-12-25T03:18:44.868Z,0
2016-12-25T03:19:45.185Z,0
2016-12-25T03:20:44.845Z,0
2016-12-25T03:21:45.181Z,0
2016-12-25T03:22:45.533Z,0
2016-12-25T03:23:45.505Z,0
2016-12-25T03:24:44.841Z,0
2016-12-25T03:25:44.837Z,0
2016-12-25T03:26:45.161Z,0
2016-12-25T03:27:44.825Z,0
2016-12-25T03:28:45.481Z,0
2016-12-25T03:29:45.302Z,0
2016-12-25T03:30:45.474Z,0
2016-12-25T03:31:44.817Z,0
2016-12-25T03:32:45.466Z,0
2016-12-25T03:33:45.458Z,0
2016-12-25T03:34:44.798Z,0
2016-12-25T03:35:45.462Z,0
2016-12-25T03:36:44.792Z,0
2016-12-25T03:37:45.122Z,0
2016-12-25T03:38:45.126Z,0
2016-12-25T03:39:45.443Z,0
2016-12-25T03:40:45.438Z,0
2016-12-25T03:41:45.106Z,0
2016-12-25T03:42:45.427Z,0
2016-12-25T03:43:45.426Z,0
2016-12-25T03:44:45.419Z,0
2016-12-25T03:45:45.091Z,0
2016-12-25T03:46:44.755Z,0
2016-12-25T03:47:45.086Z,0
2016-12-25T03:48:44.751Z,0
2016-12-25T03:49:45.067Z,0
2016-12-25T03:50:45.074Z,0
2016-12-25T03:51:44.735Z,0
2016-12-25T03:52:45.071Z,0
2016-12-25T03:53:45.063Z,0
2016-12-25T03:54:45.059Z,0
2016-12-25T03:55:45.387Z,0
2016-12-25T03:56:45.395Z,0
2016-12-25T03:57:45.051Z,0
2016-12-25T03:58:45.043Z,0
2016-12-25T03:59:45.368Z,0
2016-12-25T04:00:44.709Z,0
2016-12-25T04:01:45.040Z,0
2016-12-25T04:02:45.032Z,0
2016-12-25T04:03:45.027Z,0
2016-12-25T04:04:44.716Z,0
2016-12-25T04:05:45.020Z,0
2016-12-25T04:06:45.008Z,0
2016-12-25T04:07:44.680Z,0
2016-12-25T04:08:44.679Z,0
2016-12-25T04:09:45.151Z,0
2016-12-25T04:10:44.351Z,0
2016-12-25T04:11:44.667Z,0
2016-12-25T04:12:44.367Z,0
2016-12-25T04:13:44.987Z,0
2016-12-25T04:14:45.307Z,0
2016-12-25T04:15:45.307Z,0
2016-12-25T04:16:45.303Z,0
2016-12-25T04:17:44.971Z,0
2016-12-25T04:18:44.963Z,0
2016-12-25T04:19:44.967Z,0
2016-12-25T04:20:44.638Z,0
2016-12-25T04:21:45.283Z,0
2016-12-25T04:22:45.275Z,0
2016-12-25T04:23:44.947Z,0
2016-12-25T04:24:44.947Z,0
2016-12-25T04:25:45.259Z,0
2016-12-25T04:26:45.271Z,0
2016-12-25T04:27:44.939Z,0
2016-12-25T04:28:44.935Z,0
2016-12-25T04:29:44.931Z,0
2016-12-25T04:30:44.923Z,0
2016-12-25T04:31:44.919Z,0
2016-12-25T04:32:45.247Z,0
2016-12-25T04:33:44.911Z,0
2016-12-25T04:34:45.237Z,0
2016-12-25T04:35:44.576Z,0
2016-12-25T04:36:45.231Z,0
2016-12-25T04:37:45.216Z,0
2016-12-25T04:38:45.216Z,0
2016-12-25T04:39:44.892Z,0
2016-12-25T04:40:45.204Z,0
2016-12-25T04:41:44.884Z,0
2016-12-25T04:42:44.876Z,0
2016-12-25T04:43:44.876Z,0
2016-12-25T04:44:44.868Z,0
2016-12-25T04:45:44.864Z,0
2016-12-25T04:46:44.865Z,0
2016-12-25T04:47:44.856Z,0
2016-12-25T04:48:44.857Z,0
2016-12-25T04:49:45.188Z,0
2016-12-25T04:50:44.845Z,0
2016-12-25T04:51:44.849Z,0
2016-12-25T04:52:44.505Z,0
2016-12-25T04:53:44.517Z,0
2016-12-25T04:54:45.159Z,0
2016-12-25T04:55:44.833Z,0
2016-12-25T04:56:45.153Z,0
2016-12-25T04:57:44.825Z,0
2016-12-25T04:58:44.817Z,0
2016-12-25T04:59:45.137Z,0
2016-12-25T05:00:45.147Z,0
2016-12-25T05:01:44.486Z,0
2016-12-25T05:02:45.134Z,0
2016-12-25T05:03:44.802Z,0
2016-12-25T05:04:45.125Z,0
2016-12-25T05:05:45.122Z,0
2016-12-25T05:06:45.114Z,0
2016-12-25T05:07:44.792Z,0
2016-12-25T05:08:44.778Z,0
2016-12-25T05:09:44.786Z,0
2016-12-25T05:10:44.442Z,0
2016-12-25T05:11:45.098Z,0
2016-12-25T05:12:45.094Z,0
2016-12-25T05:13:44.767Z,0
2016-12-25T05:14:44.758Z,0
2016-12-25T05:15:45.087Z,0
2016-12-25T05:16:44.418Z,0
2016-12-25T05:17:44.423Z,0
2016-12-25T05:18:44.743Z,0
2016-12-25T05:19:44.743Z,0
2016-12-25T05:20:44.411Z,0
2016-12-25T05:21:45.063Z,0
2016-12-25T05:22:44.739Z,0
2016-12-25T05:23:44.103Z,0
2016-12-25T05:24:44.723Z,0
2016-12-25T05:25:45.043Z,0
2016-12-25T05:26:45.043Z,0
2016-12-25T05:27:44.711Z,0
2016-12-25T05:28:44.708Z,0
2016-12-25T05:29:44.703Z,0
2016-12-25T05:30:45.030Z,0
2016-12-25T05:31:44.696Z,0
2016-12-25T05:32:44.692Z,0
2016-12-25T05:33:44.360Z,0
2016-12-25T05:34:44.356Z,0
2016-12-25T05:35:44.684Z,0
2016-12-25T05:36:44.688Z,0
2016-12-25T05:37:44.352Z,0
2016-12-25T05:38:44.676Z,0
2016-12-25T05:39:44.336Z,0
2016-12-25T05:40:44.988Z,0
2016-12-25T05:41:44.664Z,0
2016-12-25T05:42:44.988Z,0
2016-12-25T05:43:44.653Z,0
2016-12-25T05:44:44.989Z,0
2016-12-25T05:45:44.972Z,0
2016-12-25T05:46:43.980Z,0
2016-12-25T05:47:44.644Z,0
2016-12-25T05:48:44.628Z,0
2016-12-25T05:49:44.297Z,0
2016-12-25T05:50:44.625Z,0
2016-12-25T05:51:44.624Z,0
2016-12-25T05:52:44.616Z,0
2016-12-25T05:53:44.617Z,0
2016-12-25T05:54:44.617Z,0
2016-12-25T05:55:44.605Z,0
2016-12-25T05:56:44.929Z,0
2016-12-25T05:57:44.589Z,0
2016-12-25T05:58:44.925Z,0
2016-12-25T05:59:44.265Z,0
2016-12-25T06:00:44.269Z,0
2016-12-25T06:01:44.581Z,0
2016-12-25T06:02:44.906Z,0
2016-12-25T06:03:44.249Z,0
2016-12-25T06:04:44.898Z,0
2016-12-25T06:05:44.566Z,0
2016-12-25T06:06:44.562Z,0
2016-12-25T06:07:44.918Z,0
2016-12-25T06:08:44.549Z,0
2016-12-25T06:09:44.554Z,0
2016-12-25T06:10:44.219Z,0
2016-12-25T06:11:44.546Z,0
2016-12-25T06:12:44.867Z,0
2016-12-25T06:13:44.873Z,0
2016-12-25T06:14:44.557Z,0
2016-12-25T06:15:44.862Z,0
2016-12-25T06:16:44.854Z,0
2016-12-25T06:17:44.191Z,0
2016-12-25T06:18:44.846Z,0
2016-12-25T06:19:44.546Z,0
2016-12-25T06:20:44.186Z,0
2016-12-25T06:21:44.514Z,0
2016-12-25T06:22:44.838Z,0
2016-12-25T06:23:44.506Z,0
2016-12-25T06:24:44.830Z,0
2016-12-25T06:25:44.496Z,0
2016-12-25T06:26:44.810Z,0
2016-12-25T06:27:44.814Z,0
2016-12-25T06:28:44.479Z,0
2016-12-25T06:29:44.475Z,0
2016-12-25T06:30:44.147Z,0
2016-12-25T06:31:44.806Z,0
2016-12-25T06:32:44.467Z,0
2016-12-25T06:33:44.463Z,0
2016-12-25T06:34:44.783Z,0
2016-12-25T06:35:44.454Z,0
2016-12-25T06:36:44.779Z,0
2016-12-25T06:37:43.798Z,0
2016-12-25T06:38:44.447Z,0
2016-12-25T06:39:44.111Z,0
2016-12-25T06:40:44.763Z,0
2016-12-25T06:41:44.431Z,0
2016-12-25T06:42:44.759Z,0
2016-12-25T06:43:44.751Z,0
2016-12-25T06:44:44.099Z,0
2016-12-25T06:45:44.747Z,0
2016-12-25T06:46:44.411Z,0
2016-12-25T06:47:44.095Z,0
2016-12-25T06:48:44.079Z,0
2016-12-25T06:49:44.735Z,0
2016-12-25T06:50:44.395Z,0
2016-12-25T06:51:44.723Z,0
2016-12-25T06:52:44.715Z,4
2016-12-25T06:53:44.059Z,4
2016-12-25T06:54:44.375Z,4
2016-12-25T06:55:44.711Z,0
2016-12-25T06:56:44.707Z,4
2016-12-25T06:57:44.691Z,4
2016-12-25T06:58:44.696Z,8
2016-12-25T06:59:44.372Z,4
2016-12-25T07:00:44.359Z,8
2016-12-25T07:01:44.679Z,12
2016-12-25T07:02:43.699Z,12
2016-12-25T07:03:44.675Z,8
2016-12-25T07:04:44.672Z,12
2016-12-25T07:05:44.345Z,12
2016-12-25T07:06:44.350Z,12
2016-12-25T07:07:44.331Z,12
2016-12-25T07:08:44.328Z,16
2016-12-25T07:09:44.648Z,16
2016-12-25T07:10:44.320Z,16
2016-12-25T07:11:43.667Z,20
2016-12-25T07:12:44.640Z,24
2016-12-25T07:13:44.312Z,24
2016-12-25T07:14:44.304Z,32
2016-12-25T07:15:44.632Z,36
2016-12-25T07:16:44.293Z,44
2016-12-25T07:17:44.624Z,44
2016-12-25T07:18:43.964Z,44
2016-12-25T07:19:44.292Z,48
2016-12-25T07:20:43.956Z,52
2016-12-25T07:21:43.956Z,52
2016-12-25T07:22:43.628Z,56
2016-12-25T07:23:44.268Z,56
2016-12-25T07:24:44.272Z,60
2016-12-25T07:25:44.268Z,68
2016-12-25T07:26:44.264Z,68
2016-12-25T07:27:43.608Z,76
2016-12-25T07:28:44.588Z,84
2016-12-25T07:29:44.252Z,84
2016-12-25T07:30:44.580Z,96
2016-12-25T07:31:44.236Z,96
2016-12-25T07:32:44.236Z,104
2016-12-25T07:33:44.236Z,112
2016-12-25T07:34:44.228Z,120
2016-12-25T07:35:43.896Z,128
2016-12-25T07:36:43.896Z,128
2016-12-25T07:37:44.213Z,132
2016-12-25T07:38:43.888Z,132
2016-12-25T07:39:43.892Z,132
2016-12-25T07:40:44.208Z,140
2016-12-25T07:41:43.872Z,140
2016-12-25T07:42:44.197Z,144
2016-12-25T07:43:43.868Z,160
2016-12-25T07:44:44.528Z,164
2016-12-25T07:45:43.784Z,168
2016-12-25T07:46:44.516Z,172
2016-12-25T07:47:44.188Z,180
2016-12-25T07:48:44.177Z,192
2016-12-25T07:49:43.884Z,192
2016-12-25T07:50:43.872Z,192
2016-12-25T07:51:44.496Z,192
2016-12-25T07:52:44.164Z,196
2016-12-25T07:53:44.492Z,200
2016-12-25T07:54:44.152Z,212
2016-12-25T07:55:44.156Z,216
2016-12-25T07:56:44.148Z,224
2016-12-25T07:57:44.145Z,228
2016-12-25T07:58:44.168Z,224
2016-12-25T07:59:44.464Z,224
2016-12-25T08:00:44.124Z,224
2016-12-25T08:01:44.128Z,228
2016-12-25T08:02:44.120Z,232
2016-12-25T08:03:43.789Z,232
2016-12-25T08:04:44.117Z,232
2016-12-25T08:05:44.120Z,228
2016-12-25T08:06:44.445Z,228
2016-12-25T08:07:44.442Z,228
2016-12-25T08:08:44.104Z,232
2016-12-25T08:09:43.777Z,240
2016-12-25T08:10:44.421Z,244
2016-12-25T08:11:44.092Z,256
2016-12-25T08:12:44.421Z,268
2016-12-25T08:13:44.416Z,276
2016-12-25T08:14:44.404Z,292
2016-12-25T08:15:44.072Z,312
2016-12-25T08:16:43.741Z,336
2016-12-25T08:17:44.396Z,368
2016-12-25T08:18:43.733Z,392
2016-12-25T08:19:44.388Z,408
2016-12-25T08:20:44.056Z,416
2016-12-25T08:21:44.048Z,428
2016-12-25T08:22:44.048Z,440
2016-12-25T08:23:44.048Z,436
2016-12-25T08:24:44.044Z,420
2016-12-25T08:25:44.092Z,404
2016-12-25T08:26:44.069Z,388
2016-12-25T08:27:44.032Z,380
2016-12-25T08:28:44.028Z,380
2016-12-25T08:29:44.028Z,388
2016-12-25T08:30:44.013Z,396
2016-12-25T08:31:44.349Z,408
2016-12-25T08:32:44.007Z,420
2016-12-25T08:33:44.335Z,444
2016-12-25T08:34:44.004Z,468
2016-12-25T08:35:43.999Z,480
2016-12-25T08:36:43.995Z,484
2016-12-25T08:37:43.991Z,484
2016-12-25T08:38:43.983Z,472
2016-12-25T08:39:43.979Z,456
2016-12-25T08:40:44.310Z,452
2016-12-25T08:41:43.979Z,456
2016-12-25T08:42:43.655Z,464
2016-12-25T08:43:43.990Z,472
2016-12-25T08:44:44.294Z,476
2016-12-25T08:45:44.294Z,488
2016-12-25T08:46:43.962Z,500
2016-12-25T08:47:43.951Z,504
2016-12-25T08:48:43.947Z,500
2016-12-25T08:49:43.951Z,496
2016-12-25T08:50:43.946Z,492
2016-12-25T08:51:43.607Z,492
2016-12-25T08:52:44.266Z,496
2016-12-25T08:53:44.259Z,524
2016-12-25T08:54:43.923Z,560
2016-12-25T08:55:44.247Z,600
2016-12-25T08:56:43.591Z,636
2016-12-25T08:57:43.915Z,660
2016-12-25T08:58:43.911Z,680
2016-12-25T08:59:43.911Z,680
2016-12-25T09:00:43.895Z,676
2016-12-25T09:01:44.235Z,652
2016-12-25T09:02:43.903Z,632
2016-12-25T09:03:44.219Z,636
2016-12-25T09:04:43.891Z,660
2016-12-25T09:05:43.879Z,684
2016-12-25T09:06:44.212Z,688
2016-12-25T09:07:44.212Z,672
2016-12-25T09:08:43.879Z,656
2016-12-25T09:09:44.199Z,628
2016-12-25T09:10:43.863Z,620
2016-12-25T09:11:44.187Z,620
2016-12-25T09:12:44.192Z,628
2016-12-25T09:13:44.188Z,656
2016-12-25T09:14:44.180Z,700
2016-12-25T09:15:43.848Z,764
2016-12-25T09:16:43.844Z,844
2016-12-25T09:17:43.848Z,976
2016-12-25T09:18:44.171Z,1112
2016-12-25T09:19:44.164Z,1116
2016-12-25T09:20:43.504Z,1048
2016-12-25T09:21:44.160Z,1000
2016-12-25T09:22:43.504Z,932
2016-12-25T09:23:43.820Z,872
2016-12-25T09:24:43.524Z,900
2016-12-25T09:25:44.140Z,996
2016-12-25T09:26:43.804Z,1032
2016-12-25T09:27:43.800Z,1036
2016-12-25T09:28:43.804Z,1088
2016-12-25T09:29:44.131Z,1136
2016-12-25T09:30:43.949Z,1124
2016-12-25T09:31:44.117Z,1032
2016-12-25T09:32:43.825Z,956
2016-12-25T09:33:44.113Z,940
2016-12-25T09:34:43.933Z,1008
2016-12-25T09:35:43.925Z,1120
2016-12-25T09:36:44.109Z,1208
2016-12-25T09:37:43.769Z,1284
2016-12-25T09:38:43.769Z,1348
2016-12-25T09:39:43.779Z,1460
2016-12-25T09:40:43.437Z,1644
2016-12-25T09:41:43.753Z,1776
2016-12-25T09:42:44.078Z,1836
2016-12-25T09:43:43.429Z,1816
2016-12-25T09:44:43.742Z,1704
2016-12-25T09:45:43.744Z,1604
2016-12-25T09:46:43.742Z,1584
2016-12-25T09:47:43.731Z,1656
2016-12-25T09:48:43.726Z,1704
2016-12-25T09:49:43.734Z,1660
2016-12-25T09:50:43.722Z,1688
2016-12-25T09:51:43.722Z,1680
2016-12-25T09:52:43.722Z,1732
2016-12-25T09:53:43.395Z,1764
2016-12-25T09:54:43.390Z,1748
2016-12-25T09:55:44.035Z,1720
2016-12-25T09:56:44.031Z,1688
2016-12-25T09:57:43.703Z,1684
2016-12-25T09:58:44.031Z,1704
2016-12-25T09:59:44.035Z,1732
2016-12-25T10:00:44.019Z,1748
2016-12-25T10:01:43.359Z,1760
2016-12-25T10:02:43.675Z,1764
2016-12-25T10:03:43.690Z,1772
2016-12-25T10:04:43.690Z,1764
2016-12-25T10:05:43.683Z,1748
2016-12-25T10:06:43.667Z,1736
2016-12-25T10:07:43.339Z,1728
2016-12-25T10:08:43.995Z,1740
2016-12-25T10:09:43.991Z,1756
2016-12-25T10:10:43.659Z,1748
2016-12-25T10:11:43.651Z,1740
2016-12-25T10:12:43.323Z,1740
2016-12-25T10:13:43.323Z,1744
2016-12-25T10:14:43.655Z,1768
2016-12-25T10:15:43.639Z,1820
2016-12-25T10:16:43.315Z,1888
2016-12-25T10:17:43.963Z,1948
2016-12-25T10:18:42.979Z,1960
2016-12-25T10:19:43.295Z,1940
2016-12-25T10:20:43.631Z,1952
2016-12-25T10:21:43.943Z,2024
2016-12-25T10:22:43.607Z,2112
2016-12-25T10:23:43.615Z,2176
2016-12-25T10:24:43.935Z,2204
2016-12-25T10:25:43.613Z,2164
2016-12-25T10:26:43.931Z,2116
2016-12-25T10:27:43.275Z,2084
2016-12-25T10:28:43.271Z,2104
2016-12-25T10:29:43.919Z,2132
2016-12-25T10:30:43.591Z,2180
2016-12-25T10:31:43.911Z,2232
2016-12-25T10:32:43.908Z,2288
2016-12-25T10:33:43.575Z,2320
2016-12-25T10:34:43.247Z,2324
2016-12-25T10:35:43.567Z,2356
2016-12-25T10:36:43.572Z,2432
2016-12-25T10:37:43.567Z,2532
2016-12-25T10:38:43.556Z,2660
2016-12-25T10:39:43.236Z,2828
2016-12-25T10:40:43.552Z,3020
2016-12-25T10:41:43.221Z,3188
2016-12-25T10:42:43.876Z,3284
2016-12-25T10:43:43.876Z,3344
2016-12-25T10:44:43.548Z,3364
2016-12-25T10:45:43.872Z,3392
2016-12-25T10:46:43.864Z,3376
2016-12-25T10:47:43.536Z,3236
2016-12-25T10:48:43.856Z,2984
2016-12-25T10:49:43.533Z,2768
2016-12-25T10:50:43.857Z,2668
2016-12-25T10:51:43.851Z,2640
2016-12-25T10:52:43.845Z,2508
2016-12-25T10:53:43.517Z,2244
2016-12-25T10:54:43.845Z,2048
2016-12-25T10:55:43.837Z,2028
2016-12-25T10:56:43.509Z,2116
2016-12-25T10:57:43.833Z,2352
2016-12-25T10:58:43.501Z,2636
2016-12-25T10:59:43.501Z,2832
2016-12-25T11:00:43.826Z,2880
2016-12-25T11:01:43.167Z,2920
2016-12-25T11:02:43.824Z,2972
2016-12-25T11:03:43.489Z,2944
2016-12-25T11:04:43.486Z,2888
2016-12-25T11:05:43.482Z,2812
2016-12-25T11:06:43.484Z,2708
2016-12-25T11:07:43.794Z,2648
2016-12-25T11:08:42.822Z,2616
2016-12-25T11:09:43.146Z,2632
2016-12-25T11:10:43.470Z,2672
2016-12-25T11:11:43.474Z,2676
2016-12-25T11:12:43.138Z,2684
2016-12-25T11:13:43.127Z,2696
2016-12-25T11:14:43.783Z,2688
2016-12-25T11:15:42.803Z,2664
2016-12-25T11:16:43.451Z,2656
2016-12-25T11:17:43.451Z,2656
2016-12-25T11:18:43.443Z,2648
2016-12-25T11:19:43.447Z,2668
2016-12-25T11:20:43.451Z,2712
2016-12-25T11:21:43.104Z,2740
2016-12-25T11:22:43.107Z,2756
2016-12-25T11:23:43.432Z,2716
2016-12-25T11:24:43.104Z,2688
2016-12-25T11:25:43.429Z,2632
2016-12-25T11:26:43.424Z,2572
2016-12-25T11:27:43.751Z,2540
2016-12-25T11:28:43.448Z,2564
2016-12-25T11:29:43.408Z,2596
2016-12-25T11:30:43.741Z,2552
2016-12-25T11:31:43.400Z,2424
2016-12-25T11:32:43.724Z,2328
2016-12-25T11:33:43.404Z,2224
2016-12-25T11:34:43.401Z,2184
2016-12-25T11:35:43.404Z,2212
2016-12-25T11:36:43.081Z,2300
2016-12-25T11:37:43.384Z,2372
2016-12-25T11:38:43.389Z,2360
2016-12-25T11:39:43.712Z,2288
2016-12-25T11:40:43.385Z,2288
2016-12-25T11:41:43.049Z,2404
2016-12-25T11:42:43.045Z,2552
2016-12-25T11:43:43.709Z,2620
2016-12-25T11:44:43.705Z,2660
2016-12-25T11:45:43.370Z,2668
2016-12-25T11:46:43.365Z,2664
2016-12-25T11:47:43.041Z,2712
2016-12-25T11:48:43.029Z,2856
2016-12-25T11:49:43.365Z,2892
2016-12-25T11:50:43.362Z,2860
2016-12-25T11:51:43.685Z,2852
2016-12-25T11:52:43.681Z,2792
2016-12-25T11:53:43.670Z,2680
2016-12-25T11:54:43.026Z,2552
2016-12-25T11:55:43.014Z,2484
2016-12-25T11:56:43.014Z,2540
2016-12-25T11:57:43.338Z,2744
2016-12-25T11:58:43.322Z,2808
2016-12-25T11:59:43.330Z,2756
2016-12-25T12:00:43.330Z,2724
2016-12-25T12:01:43.326Z,2640
2016-12-25T12:02:43.322Z,2604
2016-12-25T12:03:43.322Z,2516
2016-12-25T12:04:43.322Z,2408
2016-12-25T12:05:42.982Z,2324
2016-12-25T12:06:43.641Z,2288
2016-12-25T12:07:43.314Z,2260
2016-12-25T12:08:43.642Z,2248
2016-12-25T12:09:43.310Z,2268
2016-12-25T12:10:43.302Z,2372
2016-12-25T12:11:43.302Z,2516
2016-12-25T12:12:42.974Z,2588
2016-12-25T12:13:43.623Z,2608
2016-12-25T12:14:43.612Z,2580
2016-12-25T12:15:43.614Z,2492
2016-12-25T12:16:43.295Z,2404
2016-12-25T12:17:42.959Z,2364
2016-12-25T12:18:42.959Z,2352
2016-12-25T12:19:43.283Z,2288
2016-12-25T12:20:43.276Z,2276
2016-12-25T12:21:43.279Z,2216
2016-12-25T12:22:43.603Z,2204
2016-12-25T12:23:43.271Z,2208
2016-12-25T12:24:43.267Z,2204
2016-12-25T12:25:43.583Z,2232
2016-12-25T12:26:43.267Z,2244
2016-12-25T12:27:42.927Z,2244
2016-12-25T12:28:42.927Z,2232
2016-12-25T12:29:43.256Z,2184
2016-12-25T12:30:43.252Z,2120
2016-12-25T12:31:43.160Z,2052
2016-12-25T12:32:42.920Z,1996
2016-12-25T12:33:43.248Z,2016
2016-12-25T12:34:43.240Z,2036
2016-12-25T12:35:43.572Z,2024
2016-12-25T12:36:43.568Z,1980
2016-12-25T12:37:43.563Z,1956
2016-12-25T12:38:43.248Z,1912
2016-12-25T12:39:43.295Z,1880
2016-12-25T12:40:43.223Z,1904
2016-12-25T12:41:43.551Z,1960
2016-12-25T12:42:42.891Z,2004
2016-12-25T12:43:43.219Z,2044
2016-12-25T12:44:43.215Z,2116
2016-12-25T12:45:43.539Z,2132
2016-12-25T12:46:43.538Z,2092
2016-12-25T12:47:43.206Z,2052
2016-12-25T12:48:43.534Z,2048
2016-12-25T12:49:42.870Z,2040
2016-12-25T12:50:42.878Z,2020
2016-12-25T12:51:43.522Z,2040
2016-12-25T12:52:43.222Z,2100
2016-12-25T12:53:42.862Z,2076
2016-12-25T12:54:43.189Z,1980
2016-12-25T12:55:42.849Z,1956
2016-12-25T12:56:43.182Z,1968
2016-12-25T12:57:43.513Z,1988
2016-12-25T12:58:42.869Z,2012
2016-12-25T12:59:43.501Z,2024
2016-12-25T13:00:43.497Z,2044
2016-12-25T13:01:42.845Z,2036
2016-12-25T13:02:43.497Z,1984
2016-12-25T13:03:43.173Z,1904
2016-12-25T13:04:43.493Z,1840
2016-12-25T13:05:43.485Z,1776
2016-12-25T13:06:42.829Z,1716
2016-12-25T13:07:43.485Z,1704
2016-12-25T13:08:43.145Z,1732
2016-12-25T13:09:43.472Z,1740
2016-12-25T13:10:43.141Z,1736
2016-12-25T13:11:42.816Z,1748
2016-12-25T13:12:43.461Z,1716
2016-12-25T13:13:43.137Z,1620
2016-12-25T13:14:43.136Z,1520
2016-12-25T13:15:43.456Z,1448
2016-12-25T13:16:43.284Z,1388
2016-12-25T13:17:43.456Z,1364
2016-12-25T13:18:42.788Z,1396
2016-12-25T13:19:43.452Z,1488
2016-12-25T13:20:43.449Z,1560
2016-12-25T13:21:43.448Z,1576
2016-12-25T13:22:43.116Z,1572
2016-12-25T13:23:43.108Z,1564
2016-12-25T13:24:43.108Z,1564
2016-12-25T13:25:43.108Z,1588
2016-12-25T13:26:43.420Z,1584
2016-12-25T13:27:43.100Z,1536
2016-12-25T13:28:43.092Z,1452
2016-12-25T13:29:43.424Z,1384
2016-12-25T13:30:43.088Z,1388
2016-12-25T13:31:43.412Z,1424
2016-12-25T13:32:43.412Z,1444
2016-12-25T13:33:43.416Z,1428
2016-12-25T13:34:43.073Z,1416
2016-12-25T13:35:43.080Z,1404
2016-12-25T13:36:43.653Z,1360
2016-12-25T13:37:43.396Z,1320
2016-12-25T13:38:43.397Z,1296
2016-12-25T13:39:43.080Z,1280
2016-12-25T13:40:43.396Z,1292
2016-12-25T13:41:43.060Z,1324
2016-12-25T13:42:43.380Z,1364
2016-12-25T13:43:42.397Z,1376
2016-12-25T13:44:42.725Z,1380
2016-12-25T13:45:43.377Z,1396
2016-12-25T13:46:43.045Z,1408
2016-12-25T13:47:43.372Z,1412
2016-12-25T13:48:43.045Z,1416
2016-12-25T13:49:42.713Z,1392
2016-12-25T13:50:43.033Z,1364
2016-12-25T13:51:43.357Z,1336
2016-12-25T13:52:43.353Z,1304
2016-12-25T13:53:43.029Z,1264
2016-12-25T13:54:43.029Z,1224
2016-12-25T13:55:43.353Z,1168
2016-12-25T13:56:43.025Z,1112
2016-12-25T13:57:43.021Z,1068
2016-12-25T13:58:43.341Z,1032
2016-12-25T13:59:43.333Z,1004
2016-12-25T14:00:43.341Z,984
2016-12-25T14:01:42.997Z,972
2016-12-25T14:02:43.041Z,980
2016-12-25T14:03:42.994Z,1012
2016-12-25T14:04:42.993Z,1024
2016-12-25T14:05:42.994Z,1000
2016-12-25T14:06:43.317Z,952